Tracer — PHAC — position and weather

sailwx.info

Track history (hours):
 
Tides and Currents Weather Stations Pressure Air Temp Water Temp Dewpoint Dewpoint Depression Visibility Wind Speed Wind Dir Waves Ship Positions

Tracer

Last reported at 2015-Apr-12 04:27 UTC. Time now 2015-May-03 16:53 UTC.
Position N 29°29' W 094°51'.
Warning: this ship's position is 21 days out of date.

Length 101 m; beam 20 m.

Type: Cargo ship. MMSI: 245949000.

Date/timePositionNaut miles runAvg speedWind from/ knotsBaromVisibWave heightAir tempDewpointWater temp
2015-Apr-12 04:27N 29°29' W 094°51'1213.5
2015-Apr-12 03:33N 29°39' W 094°58'2 2.0
2015-Apr-12 02:31N 29°41' W 094°59'0 0.0
2015-Apr-12 01:31N 29°41' W 094°59'0 0.0
2015-Apr-12 00:31N 29°41' W 094°59'0 0.0
2015-Apr-11 23:31N 29°41' W 094°59'0 0.0
2015-Apr-11 22:31N 29°41' W 094°59'0 0.0
2015-Apr-11 21:31N 29°41' W 094°59'0 0.0
2015-Apr-11 20:31N 29°41' W 094°59'0 0.0
2015-Apr-11 19:31N 29°41' W 094°59'0 0.0
2015-Apr-11 18:31N 29°41' W 094°59'0 0.0
2015-Apr-11 17:31N 29°41' W 094°59'0 0.0
2015-Apr-11 16:34N 29°41' W 094°59'0 0.0
2015-Apr-11 15:30N 29°41' W 094°59'0 0.0
2015-Apr-11 14:33N 29°41' W 094°59'0 0.0
2015-Apr-11 13:33N 29°41' W 094°59'0 0.0
2015-Apr-11 12:33N 29°41' W 094°59'0 0.0
2015-Apr-11 11:33N 29°41' W 094°59'0 0.0
2015-Apr-11 10:30N 29°41' W 094°59'0 0.0
2015-Apr-11 09:33N 29°41' W 094°59'0 0.0
2015-Apr-11 08:33N 29°41' W 094°59'0 0.0
2015-Apr-11 07:33N 29°41' W 094°59'0 0.0
2015-Apr-11 06:33N 29°41' W 094°59'0 0.0
2015-Apr-11 05:33N 29°41' W 094°59'0 0.0
2015-Apr-11 04:33N 29°41' W 094°59'0 0.0
2015-Apr-11 03:33N 29°41' W 094°59'0 0.0
2015-Apr-11 02:27N 29°41' W 094°59'0 0.0
2015-Apr-11 01:30N 29°41' W 094°59'0 0.0
2015-Apr-11 00:33N 29°41' W 094°59'0 0.0
2015-Apr-10 23:33N 29°41' W 094°59'0 0.0
2015-Apr-10 22:33N 29°41' W 094°59'0 0.0
2015-Apr-10 21:31N 29°41' W 094°59'5 5.6
2015-Apr-10 20:34N 29°36' W 094°57'1313.0
2015-Apr-10 19:33N 29°25' W 094°50'254 6.5
2015-Apr-09 04:07N 29°56' W 089°59'7 0.9
2015-Apr-08 20:32N 29°55' W 090°06'  
Track history (hours):
 
Tides and Currents Weather Stations Pressure Air Temp Water Temp Dewpoint Dewpoint Depression Visibility Wind Speed Wind Dir Waves Ship Positions

Tracer

Last reported at 2015-Apr-12 04:27 UTC. Time now 2015-May-03 16:53 UTC.
Position N 29°29' W 094°51'.
Warning: this ship's position is 21 days out of date.

Length 101 m; beam 20 m.

Type: Cargo ship. MMSI: 245949000.

Date/timePositionNaut miles runAvg speedWind from/ knotsBaromVisibWave heightAir tempDewpointWater temp
2015-Apr-12 04:27N 29°29' W 094°51'1213.5
2015-Apr-12 03:33N 29°39' W 094°58'2 2.0
2015-Apr-12 02:31N 29°41' W 094°59'0 0.0
2015-Apr-12 01:31N 29°41' W 094°59'0 0.0
2015-Apr-12 00:31N 29°41' W 094°59'0 0.0
2015-Apr-11 23:31N 29°41' W 094°59'0 0.0
2015-Apr-11 22:31N 29°41' W 094°59'0 0.0
2015-Apr-11 21:31N 29°41' W 094°59'0 0.0
2015-Apr-11 20:31N 29°41' W 094°59'0 0.0
2015-Apr-11 19:31N 29°41' W 094°59'0 0.0
2015-Apr-11 18:31N 29°41' W 094°59'0 0.0
2015-Apr-11 17:31N 29°41' W 094°59'0 0.0
2015-Apr-11 16:34N 29°41' W 094°59'0 0.0
2015-Apr-11 15:30N 29°41' W 094°59'0 0.0
2015-Apr-11 14:33N 29°41' W 094°59'0 0.0
2015-Apr-11 13:33N 29°41' W 094°59'0 0.0
2015-Apr-11 12:33N 29°41' W 094°59'0 0.0
2015-Apr-11 11:33N 29°41' W 094°59'0 0.0
2015-Apr-11 10:30N 29°41' W 094°59'0 0.0
2015-Apr-11 09:33N 29°41' W 094°59'0 0.0
2015-Apr-11 08:33N 29°41' W 094°59'0 0.0
2015-Apr-11 07:33N 29°41' W 094°59'0 0.0
2015-Apr-11 06:33N 29°41' W 094°59'0 0.0
2015-Apr-11 05:33N 29°41' W 094°59'0 0.0
2015-Apr-11 04:33N 29°41' W 094°59'0 0.0
2015-Apr-11 03:33N 29°41' W 094°59'0 0.0
2015-Apr-11 02:27N 29°41' W 094°59'0 0.0
2015-Apr-11 01:30N 29°41' W 094°59'0 0.0
2015-Apr-11 00:33N 29°41' W 094°59'0 0.0
2015-Apr-10 23:33N 29°41' W 094°59'0 0.0
2015-Apr-10 22:33N 29°41' W 094°59'0 0.0
2015-Apr-10 21:31N 29°41' W 094°59'5 5.6
2015-Apr-10 20:34N 29°36' W 094°57'1313.0
2015-Apr-10 19:33N 29°25' W 094°50'254 6.5
2015-Apr-09 04:07N 29°56' W 089°59'7 0.9
2015-Apr-08 20:32N 29°55' W 090°06'  

Dump ship's entire track history